Time;durP1;ratioP1;P1;durP2;ratioP2;P2;SDS_P1;SDS_P2;PMS_P1;PMS_P2;Temp;Humidity;BMP_temperature;BMP_pressure;BME280_temperature;BME280_humidity;BME280_pressure;Samples;Min_cycle;Max_cycle;Signal;HPM_P1;HPM_P2
2022/05/30 00:01:40;;;;;;;3.78;3.25;;;9.00;60.60;;;;;;5118209;28;20253;-75
2022/05/30 00:04:07;;;;;;;3.83;3.50;;;9.00;60.70;;;;;;5117104;28;20303;-76
2022/05/30 00:06:35;;;;;;;4.38;3.22;;;8.90;61.30;;;;;;5118865;28;20208;-75
2022/05/30 00:09:03;;;;;;;3.45;3.15;;;9.00;61.60;;;;;;5118197;28;20228;-76
2022/05/30 00:11:30;;;;;;;3.92;3.10;;;9.00;61.80;;;;;;5117721;28;20208;-73
2022/05/30 00:14:03;;;;;;;4.40;3.38;;;9.00;61.10;;;;;;5104298;28;20232;-76
2022/05/30 00:16:33;;;;;;;3.70;3.40;;;9.00;61.70;;;;;;5100225;28;20223;-74
2022/05/30 00:19:13;;;;;;;3.70;2.90;;;8.90;61.50;;;;;;5103725;28;20312;-76
2022/05/30 00:21:41;;;;;;;4.45;3.72;;;9.00;61.80;;;;;;5112107;28;20266;-75
2022/05/30 00:24:08;;;;;;;5.55;3.63;;;8.90;61.60;;;;;;5107176;28;20228;-74
2022/05/30 00:26:35;;;;;;;3.92;3.40;;;8.90;61.90;;;;;;5111298;28;20236;-75
2022/05/30 00:29:02;;;;;;;4.00;3.60;;;8.80;62.20;;;;;;5105003;28;20240;-75
2022/05/30 00:31:29;;;;;;;4.25;3.20;;;8.80;62.80;;;;;;5097616;28;20213;-76
2022/05/30 00:33:56;;;;;;;3.78;3.28;;;8.80;62.80;;;;;;5095716;28;20683;-74
2022/05/30 00:36:23;;;;;;;4.70;3.00;;;8.90;62.70;;;;;;5098759;28;20673;-74
2022/05/30 00:38:51;;;;;;;4.15;3.33;;;8.90;62.20;;;;;;5096826;28;20229;-75
2022/05/30 00:41:19;;;;;;;4.07;3.30;;;8.90;62.20;;;;;;5113745;28;20204;-73
2022/05/30 00:43:46;;;;;;;3.55;3.17;;;8.90;62.10;;;;;;5121530;28;20231;-74
2022/05/30 00:46:15;;;;;;;4.30;3.20;;;8.80;62.80;;;;;;5116433;28;20216;-72
2022/05/30 00:48:45;;;;;;;3.42;3.13;;;8.80;63.10;;;;;;5117410;28;20236;-74
2022/05/30 00:51:15;;;;;;;4.45;3.83;;;8.70;63.50;;;;;;5115150;28;20656;-72
2022/05/30 00:53:44;;;;;;;3.70;3.40;;;8.70;64.50;;;;;;5103470;28;20249;-72
2022/05/30 00:56:14;;;;;;;4.43;2.97;;;8.70;64.90;;;;;;5113989;28;20224;-73
2022/05/30 00:58:45;;;;;;;5.95;3.58;;;8.70;64.80;;;;;;5115352;28;20217;-73
2022/05/30 01:01:13;;;;;;;3.92;3.35;;;8.60;65.30;;;;;;5116077;28;20193;-73
2022/05/30 01:06:33;;;;;;;4.90;3.90;;;8.40;67.20;;;;;;5115651;28;20187;-72
2022/05/30 01:09:03;;;;;;;6.18;3.17;;;8.40;67.50;;;;;;5103233;28;20221;-72
2022/05/30 01:11:57;;;;;;;5.47;3.50;;;8.30;67.70;;;;;;5094976;28;20270;-72
2022/05/30 01:14:26;;;;;;;3.20;3.00;;;8.20;68.60;;;;;;5094524;28;20231;-73
2022/05/30 01:16:53;;;;;;;4.00;3.70;;;8.20;69.00;;;;;;5094425;28;20221;-73
2022/05/30 01:19:43;;;;;;;4.38;3.72;;;8.10;69.90;;;;;;5094226;28;20735;-73
2022/05/30 01:22:41;;;;;;;6.05;3.33;;;8.10;70.60;;;;;;5094648;28;20197;-72
2022/05/30 01:25:17;;;;;;;4.45;3.95;;;8.00;71.20;;;;;;5068139;28;20216;-72
2022/05/30 01:27:50;;;;;;;4.75;3.92;;;8.10;71.30;;;;;;5094772;28;20272;-73
2022/05/30 01:30:19;;;;;;;4.15;3.75;;;8.00;72.60;;;;;;5094194;28;20315;-73
2022/05/30 01:32:46;;;;;;;3.80;3.50;;;8.00;72.70;;;;;;5094121;28;20236;-73
2022/05/30 01:35:33;;;;;;;4.38;3.97;;;8.00;73.10;;;;;;5095881;28;20308;-75
2022/05/30 01:38:01;;;;;;;3.97;3.63;;;7.90;73.60;;;;;;5071026;28;20225;-73
2022/05/30 01:40:28;;;;;;;3.60;3.30;;;7.80;74.60;;;;;;5071328;28;20229;-75
2022/05/30 01:42:55;;;;;;;4.10;3.75;;;7.80;75.40;;;;;;5058747;28;20664;-72
2022/05/30 01:45:24;;;;;;;4.05;3.75;;;7.70;75.30;;;;;;5054902;28;20236;-73
2022/05/30 01:47:51;;;;;;;4.78;3.78;;;7.60;75.20;;;;;;5057473;28;20202;-73
2022/05/30 01:50:19;;;;;;;4.68;3.50;;;7.60;76.60;;;;;;5052647;28;20234;-73
2022/05/30 01:52:46;;;;;;;4.55;3.70;;;7.50;77.20;;;;;;5051353;28;20206;-73
2022/05/30 01:55:13;;;;;;;5.03;3.97;;;7.50;78.40;;;;;;5055594;28;20301;-73
2022/05/30 01:57:40;;;;;;;4.25;3.40;;;7.50;79.00;;;;;;5093702;28;20236;-72
2022/05/30 02:00:10;;;;;;;4.85;3.40;;;7.50;79.40;;;;;;5093611;28;20221;-72
2022/05/30 02:02:38;;;;;;;4.35;3.78;;;7.40;79.30;;;;;;5075739;28;20204;-72
2022/05/30 02:05:05;;;;;;;4.05;3.75;;;7.40;79.30;;;;;;5093569;28;20229;-75
2022/05/30 02:07:33;;;;;;;6.30;4.00;;;7.40;79.30;;;;;;5093754;28;20236;-73
2022/05/30 02:09:59;;;;;;;5.47;4.38;;;7.40;79.30;;;;;;5093593;28;20229;-76
2022/05/30 02:12:26;;;;;;;4.45;3.97;;;7.40;80.00;;;;;;5093242;28;20756;-73
2022/05/30 02:14:53;;;;;;;3.97;3.67;;;7.30;79.40;;;;;;5100357;28;20215;-73
2022/05/30 02:17:19;;;;;;;4.43;4.03;;;7.20;80.00;;;;;;5101256;28;20578;-75
2022/05/30 02:19:47;;;;;;;6.30;4.20;;;7.20;80.50;;;;;;5093710;28;20221;-72
2022/05/30 02:22:17;;;;;;;4.22;3.65;;;7.10;81.20;;;;;;5093907;28;20855;-72
2022/05/30 02:24:45;;;;;;;3.75;3.35;;;7.10;81.60;;;;;;5093315;28;20201;-73
2022/05/30 02:27:13;;;;;;;4.95;4.13;;;7.10;82.10;;;;;;5093225;28;20656;-73
2022/05/30 02:29:41;;;;;;;4.55;3.42;;;7.10;82.20;;;;;;5094228;28;20229;-72
2022/05/30 02:32:08;;;;;;;6.20;4.20;;;7.10;82.40;;;;;;5095259;28;20205;-73
2022/05/30 02:37:22;;;;;;;6.53;3.80;;;7.10;80.90;;;;;;5102338;28;20265;-75
2022/05/30 02:39:49;;;;;;;3.78;3.40;;;7.00;80.50;;;;;;5114990;28;20672;-72
2022/05/30 02:42:16;;;;;;;3.92;3.58;;;7.00;81.20;;;;;;5124677;28;20192;-72
2022/05/30 02:44:44;;;;;;;4.28;3.65;;;7.00;82.00;;;;;;5121122;28;20676;-71
2022/05/30 02:47:11;;;;;;;4.15;3.80;;;6.90;81.60;;;;;;5125933;28;20663;-72
2022/05/30 02:49:38;;;;;;;4.00;3.38;;;6.90;81.50;;;;;;5127417;28;20265;-73
2022/05/30 02:52:06;;;;;;;5.50;4.47;;;6.90;81.20;;;;;;5118789;28;20205;-74
2022/05/30 02:54:34;;;;;;;3.80;3.50;;;6.90;81.30;;;;;;5116259;28;20207;-73
2022/05/30 02:57:01;;;;;;;3.92;3.53;;;6.80;81.70;;;;;;5122469;28;20287;-72
2022/05/30 02:59:28;;;;;;;3.75;3.20;;;6.80;81.70;;;;;;5129657;28;20293;-73
2022/05/30 03:01:56;;;;;;;7.70;3.50;;;6.70;82.30;;;;;;5125757;28;20211;-73
2022/05/30 03:04:23;;;;;;;4.28;3.85;;;6.70;82.60;;;;;;5117083;28;20298;-72
2022/05/30 03:06:50;;;;;;;6.43;3.95;;;6.60;82.80;;;;;;5117586;28;20204;-76
2022/05/30 03:09:18;;;;;;;4.95;3.70;;;6.60;84.60;;;;;;5117051;28;20722;-73
2022/05/30 03:11:47;;;;;;;4.18;3.75;;;6.70;85.00;;;;;;5098387;28;20213;-73
2022/05/30 03:14:14;;;;;;;4.13;3.70;;;6.60;84.80;;;;;;5096676;28;20300;-73
2022/05/30 03:16:40;;;;;;;4.25;3.85;;;6.60;84.70;;;;;;5096508;28;20213;-75
2022/05/30 03:19:07;;;;;;;4.47;3.88;;;6.50;85.50;;;;;;5096139;28;20725;-73
2022/05/30 03:21:34;;;;;;;4.22;3.80;;;6.50;87.40;;;;;;5098569;28;20209;-73
2022/05/30 03:24:01;;;;;;;4.72;3.42;;;6.40;85.80;;;;;;5116291;28;20695;-72
2022/05/30 03:26:28;;;;;;;4.65;3.40;;;6.40;86.70;;;;;;5116670;28;20294;-72
2022/05/30 03:28:56;;;;;;;3.90;3.50;;;6.40;86.70;;;;;;5116597;28;20232;-72
2022/05/30 03:31:23;;;;;;;4.25;3.85;;;6.20;86.60;;;;;;5116641;28;20580;-73
2022/05/30 03:33:50;;;;;;;6.63;3.58;;;6.20;87.30;;;;;;5116221;28;20303;-79
2022/05/30 03:36:20;;;;;;;4.50;3.88;;;6.20;88.10;;;;;;5116137;28;20208;-72
2022/05/30 03:38:47;;;;;;;4.72;3.85;;;6.10;88.70;;;;;;5116308;28;20225;-72
2022/05/30 03:41:15;;;;;;;3.85;3.45;;;6.20;89.90;;;;;;5116658;28;20200;-73
2022/05/30 03:43:42;;;;;;;5.30;4.25;;;6.20;89.80;;;;;;5116378;28;20207;-74
2022/05/30 03:46:10;;;;;;;3.45;3.15;;;6.20;88.90;;;;;;5116309;28;20299;-76
2022/05/30 03:48:37;;;;;;;4.90;4.15;;;6.20;88.30;;;;;;5116058;28;20248;-76
2022/05/30 03:51:05;;;;;;;4.38;3.97;;;6.20;87.90;;;;;;5116338;28;20244;-73
2022/05/30 03:53:32;;;;;;;6.45;3.72;;;6.20;87.30;;;;;;5103919;28;20201;-73
2022/05/30 03:55:59;;;;;;;4.57;3.72;;;6.10;87.20;;;;;;5095537;28;20215;-72
2022/05/30 03:58:26;;;;;;;3.92;3.58;;;6.10;88.10;;;;;;5097890;28;20255;-75
2022/05/30 04:00:53;;;;;;;7.60;4.18;;;6.20;88.50;;;;;;5095802;28;20563;-73
2022/05/30 04:03:21;;;;;;;5.40;4.03;;;6.20;88.30;;;;;;5095733;28;20236;-75
2022/05/30 04:05:48;;;;;;;8.15;4.15;;;6.20;88.30;;;;;;5094996;28;20243;-75
2022/05/30 04:08:15;;;;;;;6.45;4.68;;;6.30;87.70;;;;;;5094991;28;20262;-72
2022/05/30 04:10:42;;;;;;;7.45;4.25;;;6.40;86.70;;;;;;5095737;28;20211;-72
2022/05/30 04:13:10;;;;;;;6.00;3.90;;;6.40;85.70;;;;;;5095173;28;20287;-73
2022/05/30 04:15:37;;;;;;;4.38;3.75;;;6.40;84.90;;;;;;5095546;28;20205;-76
2022/05/30 04:18:04;;;;;;;7.63;4.03;;;6.40;84.80;;;;;;5110484;28;20203;-73
2022/05/30 04:20:33;;;;;;;5.00;3.83;;;6.50;84.40;;;;;;5115609;28;20307;-75
2022/05/30 04:23:00;;;;;;;4.50;3.58;;;6.60;83.80;;;;;;5116178;28;20208;-74
2022/05/30 04:25:27;;;;;;;7.30;3.92;;;6.60;81.60;;;;;;5115741;28;20200;-72
2022/05/30 04:27:54;;;;;;;5.80;3.40;;;6.70;82.50;;;;;;5115713;28;20244;-75
2022/05/30 04:30:21;;;;;;;4.53;3.63;;;6.80;78.80;;;;;;5114259;28;20712;-73
2022/05/30 04:32:48;;;;;;;8.60;3.85;;;6.90;77.40;;;;;;5102778;28;20222;-73
2022/05/30 04:35:15;;;;;;;5.05;3.90;;;6.90;76.40;;;;;;5113442;28;20574;-72
2022/05/30 04:37:45;;;;;;;4.55;3.60;;;6.90;76.30;;;;;;5114106;28;20335;-73
2022/05/30 04:40:15;;;;;;;4.90;3.47;;;6.90;76.40;;;;;;5114712;28;20254;-72
2022/05/30 04:42:42;;;;;;;4.13;3.72;;;7.10;74.80;;;;;;5114222;28;20299;-73
2022/05/30 04:45:10;;;;;;;5.32;3.97;;;7.20;74.90;;;;;;5113561;28;20204;-76
2022/05/30 04:47:39;;;;;;;7.53;3.78;;;7.20;74.90;;;;;;5113901;28;20208;-72
2022/05/30 04:50:08;;;;;;;3.95;3.35;;;7.40;73.10;;;;;;5115397;28;20236;-73
2022/05/30 04:52:35;;;;;;;4.28;3.88;;;7.60;72.10;;;;;;5116769;28;20297;-73
2022/05/30 04:55:04;;;;;;;4.88;3.83;;;7.90;69.60;;;;;;5116359;28;20299;-73
2022/05/30 04:57:31;;;;;;;3.95;3.35;;;8.40;66.90;;;;;;5115683;28;20205;-72
2022/05/30 04:59:58;;;;;;;6.28;3.70;;;9.00;62.50;;;;;;5115970;28;20226;-73
2022/05/30 05:02:25;;;;;;;3.13;2.72;;;9.50;59.20;;;;;;5111001;28;20201;-73
2022/05/30 05:04:52;;;;;;;6.00;2.70;;;9.90;56.50;;;;;;5107730;28;20209;-72
2022/05/30 05:07:22;;;;;;;3.28;2.92;;;10.70;52.10;;;;;;5128442;28;20230;-74
2022/05/30 05:09:53;;;;;;;3.13;2.83;;;11.60;48.20;;;;;;5127176;28;20231;-71
2022/05/30 05:12:21;;;;;;;3.50;3.20;;;12.00;45.70;;;;;;5125076;28;20271;-73
2022/05/30 05:14:48;;;;;;;3.58;3.28;;;12.20;46.30;;;;;;5114997;28;20283;-73
2022/05/30 05:17:15;;;;;;;4.28;3.88;;;11.90;46.20;;;;;;5114682;28;20219;-72
2022/05/30 05:19:43;;;;;;;3.80;3.20;;;11.80;47.50;;;;;;5113933;28;20764;-73
2022/05/30 05:22:14;;;;;;;4.80;3.33;;;11.40;49.00;;;;;;5114653;28;20287;-73
2022/05/30 05:24:41;;;;;;;4.68;4.15;;;11.10;50.30;;;;;;5114479;28;20560;-71
2022/05/30 05:27:08;;;;;;;5.20;4.60;;;11.10;50.60;;;;;;5114658;28;20227;-73
2022/05/30 05:29:37;;;;;;;4.45;4.05;;;11.30;50.50;;;;;;5113961;28;20252;-73
2022/05/30 05:32:05;;;;;;;5.72;4.90;;;11.30;50.50;;;;;;5114527;28;20281;-72
2022/05/30 05:34:31;;;;;;;4.88;4.30;;;11.60;49.20;;;;;;5113988;28;20294;-72
2022/05/30 05:36:58;;;;;;;4.78;3.83;;;11.50;49.70;;;;;;5114267;28;20208;-72
2022/05/30 05:39:25;;;;;;;4.53;3.80;;;11.60;50.70;;;;;;5114413;28;20220;-72
2022/05/30 05:41:52;;;;;;;3.92;3.63;;;12.00;48.10;;;;;;5104479;28;20209;-71
2022/05/30 05:44:19;;;;;;;6.32;5.07;;;12.10;46.90;;;;;;5093747;28;20213;-72
2022/05/30 05:46:47;;;;;;;3.80;3.50;;;11.50;48.90;;;;;;5093818;28;20569;-73
2022/05/30 05:49:15;;;;;;;3.88;3.50;;;11.90;48.70;;;;;;5093746;28;20233;-72
2022/05/30 05:51:42;;;;;;;5.20;3.55;;;12.10;47.50;;;;;;5093958;28;20217;-75
2022/05/30 05:54:09;;;;;;;4.25;3.88;;;12.30;46.40;;;;;;5094077;28;20274;-71
2022/05/30 05:56:37;;;;;;;3.40;3.10;;;12.50;45.60;;;;;;5093706;28;20622;-74
2022/05/30 05:59:04;;;;;;;3.33;3.03;;;12.70;45.50;;;;;;5094253;28;20229;-71
2022/05/30 06:01:34;;;;;;;3.50;3.10;;;13.30;42.60;;;;;;5096959;28;20207;-75
2022/05/30 06:04:04;;;;;;;5.38;4.00;;;12.70;44.30;;;;;;5094040;28;20666;-73
2022/05/30 06:06:32;;;;;;;4.05;3.50;;;12.80;44.10;;;;;;5095139;28;20189;-74
2022/05/30 06:09:01;;;;;;;3.45;3.20;;;12.60;44.60;;;;;;5116984;28;20230;-74
2022/05/30 06:11:29;;;;;;;3.40;3.10;;;12.50;45.50;;;;;;5115102;28;20212;-74
2022/05/30 06:13:57;;;;;;;5.75;3.50;;;13.00;44.10;;;;;;5114291;28;20635;-74
2022/05/30 06:16:26;;;;;;;4.68;2.90;;;13.40;42.70;;;;;;5109750;28;20541;-73
2022/05/30 06:18:55;;;;;;;3.50;3.17;;;13.70;42.50;;;;;;5096894;28;20304;-72
2022/05/30 06:21:24;;;;;;;5.50;4.10;;;13.20;42.50;;;;;;5094741;28;20228;-77
2022/05/30 06:23:51;;;;;;;3.33;2.73;;;13.60;42.90;;;;;;5094129;28;20520;-73
2022/05/30 06:26:18;;;;;;;3.83;3.53;;;14.50;39.90;;;;;;5094786;28;20520;-74
2022/05/30 06:28:45;;;;;;;2.93;2.73;;;14.10;41.30;;;;;;5094114;28;20495;-73
2022/05/30 06:31:14;;;;;;;3.60;2.90;;;14.20;40.60;;;;;;5094538;28;20432;-75
2022/05/30 06:33:47;;;;;;;2.80;2.55;;;14.40;39.50;;;;;;5095113;28;20425;-73
2022/05/30 06:36:17;;;;;;;4.00;3.03;;;14.20;40.60;;;;;;5094128;28;20201;-73
2022/05/30 06:38:46;;;;;;;3.03;2.70;;;14.80;38.80;;;;;;5093398;28;20469;-73
2022/05/30 06:41:15;;;;;;;3.57;3.27;;;14.10;40.40;;;;;;5093509;28;20455;-73
2022/05/30 06:43:43;;;;;;;3.47;3.17;;;14.00;40.70;;;;;;5093538;28;20443;-73
2022/05/30 06:46:12;;;;;;;8.77;3.33;;;14.40;39.80;;;;;;5101963;28;20916;-75
2022/05/30 06:48:39;;;;;;;3.57;2.70;;;14.50;39.30;;;;;;5091524;28;20552;-73
2022/05/30 06:51:17;;;;;;;4.60;3.17;;;13.90;41.00;;;;;;5093123;28;20477;-76
2022/05/30 06:53:46;;;;;;;3.00;2.70;;;14.10;41.20;;;;;;5093445;28;20447;-74
2022/05/30 06:56:25;;;;;;;2.87;2.67;;;14.80;39.20;;;;;;5096948;28;20455;-75
2022/05/30 06:58:53;;;;;;;3.58;3.28;;;14.80;39.00;;;;;;5095150;28;20510;-78
2022/05/30 07:01:22;;;;;;;4.07;3.70;;;13.50;42.20;;;;;;5100094;28;20197;-74
2022/05/30 07:03:49;;;;;;;3.55;3.25;;;13.20;42.50;;;;;;5107803;28;20238;-78
2022/05/30 07:06:20;;;;;;;3.70;3.40;;;12.70;44.50;;;;;;5107326;28;20283;-76
2022/05/30 07:08:49;;;;;;;3.60;3.28;;;12.70;44.90;;;;;;5105660;28;20712;-76
2022/05/30 07:11:18;;;;;;;4.35;3.45;;;12.80;44.50;;;;;;5105950;28;20209;-74
2022/05/30 07:13:46;;;;;;;4.15;3.53;;;12.70;45.30;;;;;;5105790;28;20208;-74
2022/05/30 07:16:14;;;;;;;5.07;3.38;;;12.70;45.60;;;;;;5106805;28;20288;-75
2022/05/30 07:18:42;;;;;;;5.53;3.17;;;12.50;45.50;;;;;;5106243;28;20214;-74
2022/05/30 07:21:13;;;;;;;3.17;2.88;;;12.60;45.80;;;;;;5118350;28;20260;-75
2022/05/30 07:23:40;;;;;;;3.30;3.00;;;12.90;45.10;;;;;;5108622;28;20283;-74
2022/05/30 07:26:12;;;;;;;5.55;2.78;;;12.80;44.90;;;;;;5110371;28;20266;-75
2022/05/30 07:28:43;;;;;;;3.28;2.75;;;13.00;45.00;;;;;;5113412;28;20236;-76
2022/05/30 07:31:13;;;;;;;2.63;2.40;;;13.10;43.00;;;;;;5113185;28;20205;-78
2022/05/30 07:33:43;;;;;;;3.22;2.92;;;13.30;43.20;;;;;;5116076;28;20201;-81
2022/05/30 07:36:11;;;;;;;3.15;2.70;;;13.10;43.50;;;;;;5108795;28;20193;-77
2022/05/30 07:38:38;;;;;;;3.20;2.47;;;13.20;43.40;;;;;;5104713;28;20236;-75
2022/05/30 07:41:05;;;;;;;2.80;2.60;;;13.30;42.60;;;;;;5104163;28;20221;-75
2022/05/30 07:43:34;;;;;;;5.03;3.35;;;13.30;42.60;;;;;;5124078;28;20200;-76
2022/05/30 07:46:02;;;;;;;3.10;2.90;;;13.40;43.40;;;;;;5112742;28;20207;-75
2022/05/30 07:48:29;;;;;;;2.50;2.30;;;13.30;42.60;;;;;;5110705;28;20700;-75
2022/05/30 07:50:56;;;;;;;4.20;2.20;;;13.30;42.60;;;;;;5110050;28;20236;-77
2022/05/30 07:53:23;;;;;;;3.55;2.70;;;13.50;42.80;;;;;;5106623;28;20209;-75
2022/05/30 07:55:50;;;;;;;2.30;2.15;;;13.50;42.80;;;;;;5106033;28;20261;-74
2022/05/30 07:58:16;;;;;;;3.30;2.30;;;13.60;42.90;;;;;;5105719;28;20209;-76
2022/05/30 08:00:45;;;;;;;2.88;2.03;;;13.80;41.30;;;;;;5105141;28;20930;-75
2022/05/30 08:03:14;;;;;;;2.30;2.13;;;13.80;40.40;;;;;;5105777;28;20223;-75
2022/05/30 08:05:43;;;;;;;4.45;2.53;;;13.90;39.60;;;;;;5106406;28;20460;-76
2022/05/30 08:08:10;;;;;;;2.97;1.88;;;14.10;38.90;;;;;;5117997;28;20294;-74
2022/05/30 08:10:37;;;;;;;2.40;2.05;;;14.00;39.30;;;;;;5124448;28;20228;-75
2022/05/30 08:13:05;;;;;;;3.75;2.00;;;14.10;39.30;;;;;;5124945;28;20208;-74
2022/05/30 08:15:32;;;;;;;2.13;2.00;;;14.20;38.30;;;;;;5126094;28;20337;-75
2022/05/30 08:18:02;;;;;;;2.42;1.90;;;14.20;38.40;;;;;;5126549;28;20754;-73
2022/05/30 08:20:31;;;;;;;7.63;2.20;;;14.20;37.90;;;;;;5119223;28;20267;-73
2022/05/30 08:22:58;;;;;;;3.33;1.90;;;14.50;38.20;;;;;;5103839;28;20236;-73
2022/05/30 08:25:25;;;;;;;6.22;2.08;;;14.80;38.70;;;;;;5100681;28;20486;-72
2022/05/30 08:27:52;;;;;;;3.13;2.30;;;14.90;37.70;;;;;;5116951;28;20299;-75
2022/05/30 08:30:21;;;;;;;4.27;2.17;;;15.00;37.70;;;;;;5116925;28;20494;-72
2022/05/30 08:32:49;;;;;;;2.10;2.00;;;15.10;37.30;;;;;;5117079;28;20429;-72
2022/05/30 08:35:19;;;;;;;3.10;2.20;;;14.70;37.10;;;;;;5116752;28;20464;-72
2022/05/30 08:37:48;;;;;;;2.03;1.93;;;14.80;37.00;;;;;;5117409;28;20515;-72
2022/05/30 08:43:11;;;;;;;3.27;2.00;;;15.00;35.20;;;;;;5115578;28;20416;-73
2022/05/30 08:45:39;;;;;;;3.00;2.37;;;15.10;34.20;;;;;;5108836;28;20509;-73
2022/05/30 08:48:12;;;;;;;2.50;1.93;;;15.20;34.30;;;;;;5095924;28;20429;-77
2022/05/30 08:50:47;;;;;;;1.50;1.40;;;14.90;34.00;;;;;;5095663;28;20544;-73
2022/05/30 08:53:48;;;;;;;3.43;2.10;;;15.20;34.30;;;;;;5095680;28;20450;-74
2022/05/30 08:56:23;;;;;;;2.03;1.83;;;15.20;34.30;;;;;;5096824;28;20435;-73
2022/05/30 08:59:18;;;;;;;2.13;1.97;;;15.30;34.40;;;;;;5096694;28;20477;-73
2022/05/30 09:01:49;;;;;;;2.13;1.93;;;15.50;34.60;;;;;;5095516;28;20458;-72
2022/05/30 09:04:24;;;;;;;2.20;1.80;;;15.90;34.10;;;;;;5099084;28;20479;-71
2022/05/30 09:06:57;;;;;;;3.53;1.67;;;16.40;32.90;;;;;;5094951;28;20458;-72
2022/05/30 09:09:32;;;;;;;5.60;2.60;;;16.80;31.20;;;;;;5095327;28;20515;-73
2022/05/30 09:12:05;;;;;;;5.33;2.87;;;16.20;31.40;;;;;;5095314;28;20483;-73
2022/05/30 09:14:36;;;;;;;3.23;1.97;;;16.10;31.80;;;;;;5095151;28;20455;-74
2022/05/30 09:17:06;;;;;;;3.20;1.80;;;16.50;31.40;;;;;;5113923;28;20501;-73
2022/05/30 09:19:33;;;;;;;2.13;1.93;;;16.80;28.70;;;;;;5115599;28;20502;-72
2022/05/30 09:22:04;;;;;;;2.47;1.80;;;16.90;28.30;;;;;;5115595;28;20428;-72
2022/05/30 09:24:35;;;;;;;2.70;1.63;;;17.20;28.40;;;;;;5117703;28;20449;-73
2022/05/30 09:27:03;;;;;;;4.43;2.47;;;17.50;28.20;;;;;;5116937;28;20512;-73
2022/05/30 09:29:36;;;;;;;4.10;2.33;;;17.40;27.90;;;;;;5117093;28;20456;-73
2022/05/30 09:32:11;;;;;;;2.70;1.80;;;17.30;28.20;;;;;;5116634;28;20409;-74
2022/05/30 09:34:45;;;;;;;4.70;2.00;;;17.20;27.80;;;;;;5118270;28;20451;-73
2022/05/30 09:37:27;;;;;;;2.17;1.93;;;17.10;28.30;;;;;;5118680;28;20461;-74
2022/05/30 09:39:54;;;;;;;1.93;1.70;;;16.90;27.80;;;;;;5119691;28;20497;-74
2022/05/30 09:42:25;;;;;;;3.43;2.10;;;17.00;27.30;;;;;;5119427;28;20456;-75
2022/05/30 09:44:57;;;;;;;1.80;1.63;;;16.80;26.60;;;;;;5120031;28;21003;-74
2022/05/30 09:47:24;;;;;;;2.13;1.53;;;17.10;26.80;;;;;;5125278;28;20526;-75
2022/05/30 09:49:53;;;;;;;2.50;2.00;;;17.50;26.80;;;;;;5118018;28;20495;-73
2022/05/30 09:52:31;;;;;;;5.37;1.90;;;17.90;26.00;;;;;;5115598;28;20482;-76
2022/05/30 09:54:58;;;;;;;3.20;1.93;;;18.40;26.30;;;;;;5109388;28;20442;-76
2022/05/30 09:57:29;;;;;;;3.10;1.67;;;18.10;26.30;;;;;;5118066;28;20471;-77
2022/05/30 10:00:06;;;;;;;2.23;2.03;;;18.20;26.30;;;;;;5112863;28;20502;-75
2022/05/30 10:02:36;;;;;;;2.23;2.03;;;17.70;27.20;;;;;;5100426;28;20455;-72
2022/05/30 10:05:08;;;;;;;2.33;2.10;;;17.30;27.10;;;;;;5094289;28;20471;-74
2022/05/30 10:07:49;;;;;;;2.60;1.80;;;17.70;26.60;;;;;;5072820;28;20431;-75
2022/05/30 10:10:22;;;;;;;2.20;1.80;;;17.50;27.10;;;;;;5109572;28;20572;-73
2022/05/30 10:12:55;;;;;;;2.80;1.97;;;17.40;27.10;;;;;;5096000;28;20447;-73
2022/05/30 10:15:29;;;;;;;2.07;1.70;;;18.00;24.20;;;;;;5094156;28;20808;-73
2022/05/30 10:18:17;;;;;;;3.67;1.70;;;18.30;23.60;;;;;;5096157;28;20455;-74
2022/05/30 10:20:51;;;;;;;2.27;2.03;;;18.60;23.20;;;;;;5095674;28;20453;-75
2022/05/30 10:29:33;;;;;;;2.20;2.00;;;18.70;25.00;;;;;;5108126;28;20570;-73
2022/05/30 10:32:11;;;;;;;1.80;1.70;;;18.70;24.30;;;;;;5093558;28;20425;-73
2022/05/30 10:34:55;;;;;;;2.00;1.77;;;18.70;23.70;;;;;;5110156;28;20456;-74
2022/05/30 10:37:41;;;;;;;3.30;1.90;;;18.20;23.70;;;;;;5113905;28;20859;-74
2022/05/30 10:40:27;;;;;;;2.17;1.70;;;17.90;23.30;;;;;;5101180;28;20865;-76
2022/05/30 10:43:01;;;;;;;2.93;1.73;;;17.90;23.30;;;;;;5096371;28;20428;-74
2022/05/30 10:45:34;;;;;;;3.07;1.90;;;18.10;23.50;;;;;;5095644;28;20507;-75
2022/05/30 10:48:04;;;;;;;3.10;1.80;;;18.00;22.90;;;;;;5096103;28;20435;-75
2022/05/30 10:50:43;;;;;;;1.53;1.43;;;17.90;22.90;;;;;;5102125;28;20452;-73
2022/05/30 10:53:28;;;;;;;1.90;1.80;;;18.00;23.60;;;;;;5116922;28;20470;-73
2022/05/30 10:55:59;;;;;;;3.87;1.97;;;18.30;23.60;;;;;;5115087;28;20471;-72
2022/05/30 10:58:31;;;;;;;2.33;1.70;;;18.40;23.70;;;;;;5120910;22;20461;-78
2022/05/30 11:01:03;;;;;;;2.63;1.70;;;18.50;22.90;;;;;;5097783;28;20458;-78
2022/05/30 11:03:36;;;;;;;2.00;1.90;;;18.30;23.60;;;;;;5097973;28;20443;-78
2022/05/30 11:06:09;;;;;;;1.80;1.70;;;18.00;23.40;;;;;;5097424;28;20547;-78
2022/05/30 11:08:47;;;;;;;1.90;1.70;;;18.00;23.70;;;;;;5098772;28;20612;-78
2022/05/30 11:11:21;;;;;;;3.70;1.80;;;18.00;24.30;;;;;;5100911;28;20514;-78
2022/05/30 11:13:54;;;;;;;3.53;1.50;;;18.30;23.30;;;;;;5098880;28;20829;-78
2022/05/30 11:16:34;;;;;;;1.93;1.83;;;18.50;22.50;;;;;;5099283;28;20800;-79
2022/05/30 11:19:05;;;;;;;2.70;1.77;;;18.80;22.50;;;;;;5090101;28;20736;-77
2022/05/30 11:21:38;;;;;;;2.43;1.83;;;19.10;22.30;;;;;;5083550;28;20448;-78
2022/05/30 11:24:07;;;;;;;1.83;1.60;;;19.20;21.10;;;;;;5082732;28;20440;-76
2022/05/30 11:27:27;;;;;;;3.93;2.00;;;18.50;21.10;;;;;;5083524;28;20460;-78
2022/05/30 11:30:20;;;;;;;1.83;1.73;;;18.90;21.20;;;;;;5079842;28;20585;-77
2022/05/30 11:33:11;;;;;;;3.20;1.80;;;19.30;20.10;;;;;;5087604;28;20538;-77
2022/05/30 11:35:44;;;;;;;2.43;1.77;;;19.30;20.20;;;;;;5096424;28;20430;-77
2022/05/30 11:38:35;;;;;;;1.60;1.50;;;19.50;20.30;;;;;;5112852;28;20425;-76
2022/05/30 11:41:12;;;;;;;1.50;1.40;;;19.90;19.40;;;;;;5103930;28;20530;-79
2022/05/30 11:43:58;;;;;;;2.10;1.40;;;19.70;20.00;;;;;;5088883;28;20456;-77
2022/05/30 11:46:32;;;;;;;1.57;1.47;;;20.00;19.10;;;;;;5090559;28;20441;-79
2022/05/30 11:49:04;;;;;;;2.90;1.90;;;20.00;19.60;;;;;;5095313;28;20479;-77
2022/05/30 11:51:43;;;;;;;1.93;1.20;;;20.40;18.50;;;;;;5106379;28;20542;-77
2022/05/30 11:54:37;;;;;;;2.07;1.60;;;20.30;18.40;;;;;;5103385;28;20437;-77
2022/05/30 11:57:23;;;;;;;4.10;1.27;;;20.00;18.70;;;;;;5074360;28;20446;-77
2022/05/30 12:00:17;;;;;;;3.00;1.70;;;20.00;18.70;;;;;;5100114;28;20457;-77
2022/05/30 12:03:12;;;;;;;3.20;1.70;;;20.50;17.50;;;;;;5098814;28;20498;-78
2022/05/30 12:06:31;;;;;;;1.80;1.70;;;20.00;17.00;;;;;;5097929;28;20426;-78
2022/05/30 12:09:36;;;;;;;2.03;1.30;;;20.00;16.20;;;;;;5056034;28;20496;-77
2022/05/30 12:12:22;;;;;;;1.43;1.37;;;20.00;15.90;;;;;;5059133;28;20494;-79
2022/05/30 12:15:18;;;;;;;2.10;1.57;;;19.70;17.10;;;;;;5035276;28;20529;-78
2022/05/30 12:24:30;;;;;;;1.90;1.60;;;19.40;18.30;;;;;;5053542;28;20444;-78
2022/05/30 12:27:09;;;;;;;1.57;1.47;;;19.30;19.40;;;;;;5054940;28;20535;-76
2022/05/30 12:29:51;;;;;;;2.30;1.60;;;19.30;19.20;;;;;;5053548;28;20484;-77
2022/05/30 12:32:37;;;;;;;2.03;1.40;;;19.10;19.40;;;;;;5060422;28;20468;-77
2022/05/30 12:35:22;;;;;;;1.70;1.60;;;18.90;19.10;;;;;;5056958;28;20420;-76
2022/05/30 12:37:51;;;;;;;2.00;1.80;;;19.00;17.70;;;;;;5034732;28;20464;-76
2022/05/30 12:40:35;;;;;;;1.90;1.80;;;19.20;19.10;;;;;;5067879;28;20467;-77
2022/05/30 12:43:15;;;;;;;1.53;1.43;;;19.10;18.80;;;;;;5075199;28;20926;-76
2022/05/30 12:45:46;;;;;;;3.87;1.47;;;18.70;19.20;;;;;;5076158;28;20452;-76
2022/05/30 12:48:27;;;;;;;4.00;2.23;;;18.60;19.60;;;;;;5078827;28;20456;-76
2022/05/30 12:51:15;;;;;;;3.20;1.50;;;18.70;18.70;;;;;;5075799;28;20840;-76
2022/05/30 12:54:30;;;;;;;2.20;1.90;;;19.10;18.90;;;;;;5074675;28;20494;-76
2022/05/30 12:57:12;;;;;;;1.60;1.50;;;19.30;18.00;;;;;;5074966;28;20455;-76
2022/05/30 13:00:05;;;;;;;2.87;1.47;;;19.00;18.40;;;;;;5075165;28;20479;-76
2022/05/30 13:03:10;;;;;;;1.30;1.20;;;19.00;18.50;;;;;;5078067;28;20429;-76
2022/05/30 13:05:46;;;;;;;1.90;1.70;;;19.00;18.20;;;;;;5060052;28;20517;-77
2022/05/30 13:08:55;;;;;;;4.70;1.83;;;19.40;18.10;;;;;;5082103;28;20423;-78
2022/05/30 13:11:54;;;;;;;2.07;1.60;;;19.90;16.30;;;;;;5078726;28;20468;-76
2022/05/30 13:14:36;;;;;;;1.60;1.50;;;20.00;17.00;;;;;;5091139;28;20527;-77
2022/05/30 13:17:12;;;;;;;2.67;1.70;;;19.80;17.50;;;;;;5096570;28;20536;-76
2022/05/30 13:19:44;;;;;;;2.10;1.97;;;20.00;17.10;;;;;;5085141;28;20779;-77
2022/05/30 13:22:12;;;;;;;1.47;1.37;;;19.90;16.70;;;;;;5081372;28;20754;-77
2022/05/30 13:24:40;;;;;;;1.77;1.67;;;20.00;16.30;;;;;;5082666;28;20454;-77
2022/05/30 13:27:07;;;;;;;1.60;1.50;;;19.90;15.60;;;;;;5081941;28;20482;-76
2022/05/30 13:29:36;;;;;;;1.40;1.30;;;20.10;14.60;;;;;;5081436;28;20850;-78
2022/05/30 13:32:05;;;;;;;1.33;1.27;;;19.30;15.20;;;;;;5078889;28;20578;-77
2022/05/30 13:34:34;;;;;;;1.50;1.40;;;19.60;15.10;;;;;;5080186;28;20821;-78
2022/05/30 13:37:03;;;;;;;3.10;1.40;;;19.90;14.30;;;;;;5081298;28;20438;-78